createdAt,value
2023-09-17T00:02:35.387Z,3.57
2023-09-17T00:05:22.376Z,3.40
2023-09-17T00:08:09.271Z,3.00
2023-09-17T00:10:56.067Z,3.27
2023-09-17T00:13:43.189Z,2.90
2023-09-17T00:16:32.910Z,2.93
2023-09-17T00:19:21.479Z,3.27
2023-09-17T00:22:10.628Z,2.80
2023-09-17T00:25:01.841Z,2.80
2023-09-17T00:27:48.746Z,2.63
2023-09-17T00:30:35.706Z,3.07
2023-09-17T00:33:22.835Z,3.00
2023-09-17T00:36:09.648Z,3.50
2023-09-17T00:38:56.579Z,3.40
2023-09-17T00:41:46.027Z,2.70
2023-09-17T00:44:32.973Z,3.53
2023-09-17T00:47:19.892Z,3.23
2023-09-17T00:50:07.919Z,3.30
2023-09-17T00:52:54.729Z,3.00
2023-09-17T00:55:41.530Z,3.17
2023-09-17T00:58:31.314Z,2.87
2023-09-17T01:01:19.258Z,2.63
2023-09-17T01:04:08.967Z,2.90
2023-09-17T01:06:56.747Z,2.83
2023-09-17T01:09:43.850Z,3.13
2023-09-17T01:12:30.645Z,2.80
2023-09-17T01:15:19.350Z,2.50
2023-09-17T01:18:10.752Z,2.93
2023-09-17T01:21:16.118Z,2.73
2023-09-17T01:24:24.213Z,2.70
2023-09-17T01:27:12.101Z,3.17
2023-09-17T01:29:59.102Z,2.80
2023-09-17T01:32:46.949Z,3.00
2023-09-17T01:35:34.442Z,2.80
2023-09-17T01:38:21.296Z,2.67
2023-09-17T01:41:08.396Z,2.77
2023-09-17T01:43:55.868Z,3.07
2023-09-17T01:46:42.789Z,2.93
2023-09-17T01:49:33.316Z,3.03
2023-09-17T01:52:23.942Z,2.40
2023-09-17T01:55:11.237Z,2.67
2023-09-17T01:57:58.090Z,3.10
2023-09-17T02:00:44.929Z,2.90
2023-09-17T02:03:32.332Z,2.60
2023-09-17T02:06:19.345Z,2.73
2023-09-17T02:09:06.935Z,2.70
2023-09-17T02:11:53.902Z,2.70
2023-09-17T02:14:40.862Z,3.00
2023-09-17T02:17:27.638Z,2.87
2023-09-17T02:20:14.503Z,2.90
2023-09-17T02:23:01.509Z,2.77
2023-09-17T02:25:48.366Z,2.83
2023-09-17T02:28:35.174Z,2.50
2023-09-17T02:31:23.098Z,2.60
2023-09-17T02:34:09.988Z,3.20
2023-09-17T02:36:56.940Z,2.40
2023-09-17T02:39:43.823Z,2.83
2023-09-17T02:42:31.346Z,2.80
2023-09-17T02:45:20.151Z,2.70
2023-09-17T02:48:07.381Z,2.90
2023-09-17T02:50:54.185Z,2.90
2023-09-17T02:53:43.505Z,2.70
2023-09-17T02:56:33.184Z,2.93
2023-09-17T02:59:22.321Z,2.50
2023-09-17T03:02:09.376Z,2.83
2023-09-17T03:04:57.900Z,2.50
2023-09-17T03:07:44.790Z,2.83
2023-09-17T03:10:31.803Z,2.43
2023-09-17T03:13:18.620Z,2.70
2023-09-17T03:16:06.178Z,2.50
2023-09-17T03:18:53.107Z,2.40
2023-09-17T03:21:43.348Z,2.20
2023-09-17T03:24:30.128Z,2.47
2023-09-17T03:27:16.888Z,2.37
2023-09-17T03:30:07.213Z,2.37
2023-09-17T03:33:04.128Z,2.70
2023-09-17T03:35:52.749Z,2.57
2023-09-17T03:38:39.522Z,2.63
2023-09-17T03:41:26.373Z,2.03
2023-09-17T03:44:15.908Z,2.80
2023-09-17T03:47:04.819Z,2.30
2023-09-17T03:49:51.645Z,2.47
2023-09-17T03:52:39.042Z,2.40
2023-09-17T03:55:25.943Z,2.23
2023-09-17T03:58:12.974Z,2.27
2023-09-17T04:01:00.000Z,2.43
2023-09-17T04:03:46.853Z,2.10
2023-09-17T04:06:34.801Z,2.30
2023-09-17T04:09:21.696Z,2.37
2023-09-17T04:12:08.970Z,2.30
2023-09-17T04:14:56.304Z,2.03
2023-09-17T04:17:43.561Z,2.00
2023-09-17T04:20:31.179Z,2.40
2023-09-17T04:23:20.364Z,2.20
2023-09-17T04:26:07.256Z,2.30
2023-09-17T04:28:54.340Z,2.70
2023-09-17T04:31:41.405Z,2.40
2023-09-17T04:34:28.465Z,2.40
2023-09-17T04:37:21.219Z,2.43
2023-09-17T04:40:10.123Z,2.60
2023-09-17T04:42:57.327Z,2.70
2023-09-17T04:45:44.247Z,2.40
2023-09-17T04:48:31.228Z,2.17
2023-09-17T04:51:22.138Z,1.90
2023-09-17T04:54:09.254Z,2.10
2023-09-17T04:56:56.163Z,2.20
2023-09-17T04:59:43.154Z,1.83
2023-09-17T05:02:30.267Z,1.93
2023-09-17T05:05:21.058Z,2.30
2023-09-17T05:08:09.508Z,1.93
2023-09-17T05:10:56.369Z,2.37
2023-09-17T05:13:43.315Z,2.27
2023-09-17T05:16:30.266Z,2.47
2023-09-17T05:19:17.089Z,2.20
2023-09-17T05:22:04.181Z,2.50
2023-09-17T05:24:51.230Z,2.17
2023-09-17T05:27:38.501Z,2.10
2023-09-17T05:30:26.737Z,2.30
2023-09-17T05:33:13.509Z,2.30
2023-09-17T05:36:00.879Z,2.00
2023-09-17T05:38:47.626Z,2.30
2023-09-17T05:41:36.673Z,2.00
2023-09-17T05:44:26.816Z,2.20
2023-09-17T05:47:13.973Z,2.27
2023-09-17T05:50:00.932Z,2.20
2023-09-17T05:52:47.996Z,2.53
2023-09-17T05:55:34.877Z,2.80
2023-09-17T05:58:21.770Z,2.60
2023-09-17T06:01:09.044Z,3.17
2023-09-17T06:03:56.091Z,3.13
2023-09-17T06:06:42.913Z,3.13
2023-09-17T06:09:29.761Z,3.37
2023-09-17T06:12:16.692Z,3.17
2023-09-17T06:15:03.797Z,3.17
2023-09-17T06:17:50.641Z,3.20
2023-09-17T06:20:38.056Z,3.03
2023-09-17T06:23:24.849Z,3.27
2023-09-17T06:26:12.116Z,3.13
2023-09-17T06:28:59.010Z,3.03
2023-09-17T06:31:46.088Z,3.00
2023-09-17T06:34:33.281Z,2.80
2023-09-17T06:37:20.199Z,3.00
2023-09-17T06:40:09.407Z,3.30
2023-09-17T06:42:56.220Z,2.80
2023-09-17T06:45:42.969Z,3.17
2023-09-17T06:48:30.813Z,3.47
2023-09-17T06:51:17.747Z,3.10
2023-09-17T06:54:07.780Z,3.60
2023-09-17T06:56:54.540Z,3.80
2023-09-17T06:59:41.430Z,3.47
2023-09-17T07:02:28.399Z,3.47
2023-09-17T07:05:15.533Z,3.53
2023-09-17T07:08:04.908Z,3.60
2023-09-17T07:10:52.193Z,3.53
2023-09-17T07:13:40.775Z,3.67
2023-09-17T07:16:27.699Z,3.93
2023-09-17T07:19:14.511Z,3.30
2023-09-17T07:22:01.369Z,4.13
2023-09-17T07:24:48.092Z,4.03
2023-09-17T07:27:34.936Z,3.97
2023-09-17T07:30:21.800Z,3.93
2023-09-17T07:33:08.794Z,4.23
2023-09-17T07:35:55.946Z,4.63
2023-09-17T07:38:42.896Z,4.87
2023-09-17T07:41:30.123Z,4.73
2023-09-17T07:44:17.124Z,4.40
2023-09-17T07:47:04.308Z,4.37
2023-09-17T07:49:51.539Z,4.53
2023-09-17T07:52:40.477Z,4.40
2023-09-17T07:55:27.403Z,4.43
2023-09-17T07:58:14.201Z,4.77
2023-09-17T08:01:01.070Z,4.87
2023-09-17T08:03:51.208Z,4.63
2023-09-17T08:06:38.446Z,4.83
2023-09-17T08:09:25.245Z,4.60
2023-09-17T08:12:12.203Z,5.20
2023-09-17T08:14:59.068Z,4.60
2023-09-17T08:17:45.970Z,5.10
2023-09-17T08:20:33.869Z,5.03
2023-09-17T08:23:20.773Z,4.93
2023-09-17T08:26:08.790Z,5.90
2023-09-17T08:29:01.470Z,5.70
2023-09-17T08:31:48.687Z,5.87
2023-09-17T08:34:35.779Z,5.17
2023-09-17T08:37:23.282Z,5.73
2023-09-17T08:40:14.624Z,5.33
2023-09-17T08:43:01.814Z,4.90
2023-09-17T08:45:48.981Z,5.27
2023-09-17T08:48:35.908Z,5.50
2023-09-17T08:51:24.469Z,4.83
2023-09-17T08:54:30.142Z,5.87
2023-09-17T08:57:16.971Z,4.90
2023-09-17T09:00:11.414Z,5.67
2023-09-17T09:03:01.494Z,5.50
2023-09-17T09:05:48.752Z,5.50
2023-09-17T09:08:35.886Z,4.97
2023-09-17T09:11:23.030Z,5.30
2023-09-17T09:14:12.823Z,6.33
2023-09-17T09:17:01.139Z,6.00
2023-09-17T09:19:48.013Z,5.00
2023-09-17T09:22:34.772Z,5.83
2023-09-17T09:25:21.735Z,5.23
2023-09-17T09:28:08.556Z,5.20
2023-09-17T09:30:55.425Z,5.03
2023-09-17T09:33:43.491Z,5.27
2023-09-17T09:36:32.359Z,5.30
2023-09-17T09:39:19.232Z,5.87
2023-09-17T09:42:06.535Z,5.70
2023-09-17T09:44:53.512Z,6.03
2023-09-17T09:47:40.718Z,5.60
2023-09-17T09:50:28.540Z,5.10
2023-09-17T09:53:15.752Z,5.20
2023-09-17T09:56:03.239Z,5.50
2023-09-17T09:58:50.297Z,5.20
2023-09-17T10:01:38.083Z,5.87
2023-09-17T10:04:24.952Z,5.37
2023-09-17T10:07:11.986Z,5.10
2023-09-17T10:09:59.136Z,5.33
2023-09-17T10:12:46.036Z,4.80
2023-09-17T10:15:36.190Z,5.97
2023-09-17T10:18:25.792Z,5.33
2023-09-17T10:21:14.339Z,5.40
2023-09-17T10:24:01.351Z,5.60
2023-09-17T10:26:48.128Z,5.20
2023-09-17T10:29:36.323Z,4.93
2023-09-17T10:32:23.238Z,5.10
2023-09-17T10:35:10.914Z,5.30
2023-09-17T10:37:59.311Z,4.70
2023-09-17T10:40:46.532Z,5.00
2023-09-17T10:43:37.231Z,5.17
2023-09-17T10:46:24.689Z,4.63
2023-09-17T10:49:12.430Z,4.85
2023-09-17T10:51:59.240Z,4.72
2023-09-17T10:54:47.275Z,4.72
2023-09-17T10:57:44.639Z,4.55
2023-09-17T11:00:36.213Z,4.47
2023-09-17T11:03:23.928Z,5.03
2023-09-17T11:06:17.182Z,5.82
2023-09-17T11:09:05.866Z,5.78
2023-09-17T11:11:52.874Z,5.13
2023-09-17T11:14:39.905Z,5.40
2023-09-17T11:17:34.537Z,5.53
2023-09-17T11:20:21.625Z,5.43
2023-09-17T11:23:08.687Z,5.35
2023-09-17T11:25:56.075Z,5.03
2023-09-17T11:28:43.070Z,4.90
2023-09-17T11:31:30.013Z,4.88
2023-09-17T11:34:16.943Z,5.47
2023-09-17T11:37:05.628Z,4.78
2023-09-17T11:39:52.802Z,4.78
2023-09-17T11:42:41.625Z,5.20
2023-09-17T11:45:28.550Z,4.85
2023-09-17T11:48:15.496Z,4.88
2023-09-17T11:51:23.993Z,4.43
2023-09-17T11:54:19.719Z,4.72
2023-09-17T11:57:06.564Z,4.57
2023-09-17T11:59:53.731Z,4.70
2023-09-17T12:02:40.756Z,5.05
2023-09-17T12:05:27.562Z,5.85
2023-09-17T12:08:14.461Z,5.50
2023-09-17T12:11:05.163Z,5.70
2023-09-17T12:13:58.516Z,5.93
2023-09-17T12:16:45.592Z,5.47
2023-09-17T12:19:32.614Z,5.40
2023-09-17T12:22:19.458Z,5.32
2023-09-17T12:25:14.980Z,5.38
2023-09-17T12:28:02.029Z,4.93
2023-09-17T12:30:48.875Z,5.35
2023-09-17T12:33:35.822Z,5.22
2023-09-17T12:36:22.920Z,4.75
2023-09-17T12:39:09.809Z,4.25
2023-09-17T12:41:56.826Z,3.53
2023-09-17T12:44:43.804Z,4.00
2023-09-17T12:47:32.592Z,3.75
2023-09-17T12:50:20.202Z,4.07
2023-09-17T12:53:07.131Z,4.00
2023-09-17T12:55:58.450Z,4.15
2023-09-17T12:58:50.350Z,3.83
2023-09-17T13:01:50.902Z,3.70
2023-09-17T13:04:44.374Z,3.55
2023-09-17T13:07:31.367Z,3.55
2023-09-17T13:10:21.031Z,3.67
2023-09-17T13:13:08.548Z,3.80
2023-09-17T13:15:55.841Z,3.50
2023-09-17T13:18:45.293Z,3.40
2023-09-17T13:21:32.937Z,3.33
2023-09-17T13:24:20.674Z,2.88
2023-09-17T13:27:09.612Z,2.90
2023-09-17T13:29:57.420Z,2.95
2023-09-17T13:32:44.266Z,3.05
2023-09-17T13:35:32.187Z,2.65
2023-09-17T13:38:19.207Z,3.30
2023-09-17T13:41:06.109Z,3.13
2023-09-17T13:43:52.992Z,3.08
2023-09-17T13:46:47.009Z,2.83
2023-09-17T13:49:33.877Z,2.67
2023-09-17T13:52:20.866Z,3.22
2023-09-17T13:55:08.115Z,2.78
2023-09-17T13:57:55.725Z,2.47
2023-09-17T14:00:42.687Z,2.35
2023-09-17T14:03:29.568Z,2.78
2023-09-17T14:06:16.389Z,2.65
2023-09-17T14:09:03.315Z,2.88
2023-09-17T14:11:50.090Z,2.60
2023-09-17T14:14:37.047Z,2.70
2023-09-17T14:17:23.927Z,2.47
2023-09-17T14:20:11.428Z,2.38
2023-09-17T14:22:58.354Z,2.40
2023-09-17T14:25:45.367Z,2.78
2023-09-17T14:28:32.126Z,2.30
2023-09-17T14:31:18.934Z,2.42
2023-09-17T14:34:05.690Z,2.53
2023-09-17T14:36:52.463Z,2.60
2023-09-17T14:39:39.447Z,2.58
2023-09-17T14:42:26.334Z,2.80
2023-09-17T14:45:13.074Z,2.67
2023-09-17T14:47:59.965Z,2.95
2023-09-17T14:50:46.753Z,2.67
2023-09-17T14:53:33.609Z,2.80
2023-09-17T14:56:21.225Z,2.78
2023-09-17T14:59:08.180Z,2.92
2023-09-17T15:02:01.334Z,3.20
2023-09-17T15:04:48.644Z,3.28
2023-09-17T15:07:38.853Z,3.33
2023-09-17T15:10:26.161Z,3.20
2023-09-17T15:13:13.429Z,3.47
2023-09-17T15:16:00.211Z,3.25
2023-09-17T15:18:49.082Z,3.22
2023-09-17T15:21:36.147Z,3.70
2023-09-17T15:24:22.918Z,3.30
2023-09-17T15:27:09.738Z,3.38
2023-09-17T15:29:56.699Z,3.63
2023-09-17T15:32:44.743Z,3.75
2023-09-17T15:35:31.616Z,3.65
2023-09-17T15:38:18.893Z,3.33
2023-09-17T15:41:06.331Z,3.53
2023-09-17T15:43:53.350Z,3.13
2023-09-17T15:46:42.672Z,3.60
2023-09-17T15:49:30.099Z,2.85
2023-09-17T15:52:18.091Z,3.63
2023-09-17T15:55:05.511Z,3.22
2023-09-17T15:57:52.272Z,3.42
2023-09-17T16:00:39.182Z,3.30
2023-09-17T16:03:26.129Z,3.10
2023-09-17T16:06:13.005Z,2.88
2023-09-17T16:08:59.772Z,3.55
2023-09-17T16:11:47.759Z,3.65
2023-09-17T16:14:34.477Z,3.30
2023-09-17T16:17:21.476Z,3.30
2023-09-17T16:20:09.217Z,3.10
2023-09-17T16:22:56.345Z,3.53
2023-09-17T16:25:43.148Z,3.88
2023-09-17T16:28:30.152Z,3.10
2023-09-17T16:31:17.019Z,3.60
2023-09-17T16:34:06.747Z,3.42
2023-09-17T16:36:53.500Z,3.90
2023-09-17T16:39:40.338Z,3.35
2023-09-17T16:42:27.187Z,3.83
2023-09-17T16:45:14.030Z,3.75
2023-09-17T16:48:01.022Z,3.30
2023-09-17T16:50:47.990Z,3.45
2023-09-17T16:53:34.745Z,3.33
2023-09-17T16:56:21.609Z,3.17
2023-09-17T16:59:08.988Z,3.90
2023-09-17T17:01:56.698Z,3.50
2023-09-17T17:04:45.969Z,3.50
2023-09-17T17:07:32.786Z,3.65
2023-09-17T17:10:19.597Z,3.22
2023-09-17T17:13:06.701Z,3.03
2023-09-17T17:15:53.510Z,3.38
2023-09-17T17:18:40.357Z,3.38
2023-09-17T17:21:27.090Z,3.58
2023-09-17T17:24:14.119Z,4.07
2023-09-17T17:27:00.909Z,3.00
2023-09-17T17:29:47.822Z,3.40
2023-09-17T17:32:34.731Z,3.35
2023-09-17T17:35:21.879Z,3.38
2023-09-17T17:38:08.670Z,2.95
2023-09-17T17:40:55.856Z,3.50
2023-09-17T17:43:43.609Z,3.00
2023-09-17T17:46:30.484Z,3.42
2023-09-17T17:49:17.309Z,3.20
2023-09-17T17:52:06.548Z,3.42
2023-09-17T17:54:53.807Z,3.45
2023-09-17T17:57:40.689Z,3.50
2023-09-17T18:00:30.140Z,3.38
2023-09-17T18:03:18.102Z,3.20
2023-09-17T18:06:06.881Z,3.65
2023-09-17T18:08:53.826Z,3.33
2023-09-17T18:11:40.813Z,3.42
2023-09-17T18:14:27.576Z,3.50
2023-09-17T18:17:14.526Z,3.53
2023-09-17T18:20:03.331Z,3.58
2023-09-17T18:22:50.208Z,3.25
2023-09-17T18:25:39.718Z,3.05
2023-09-17T18:28:27.502Z,2.90
2023-09-17T18:31:14.860Z,2.97
2023-09-17T18:34:01.887Z,3.10
2023-09-17T18:36:48.683Z,3.00
2023-09-17T18:39:35.617Z,3.20
2023-09-17T18:42:23.099Z,3.30
2023-09-17T18:45:12.932Z,3.03
2023-09-17T18:47:59.772Z,3.40
2023-09-17T18:50:46.727Z,3.33
2023-09-17T18:53:33.525Z,2.90
2023-09-17T18:56:20.918Z,3.28
2023-09-17T18:59:08.184Z,3.58
2023-09-17T19:01:55.133Z,3.75
2023-09-17T19:04:42.083Z,3.47
2023-09-17T19:07:28.907Z,3.58
2023-09-17T19:10:16.189Z,3.25
2023-09-17T19:13:04.192Z,3.58
2023-09-17T19:15:51.305Z,3.70
2023-09-17T19:18:39.741Z,3.80
2023-09-17T19:21:26.940Z,3.67
2023-09-17T19:24:13.953Z,3.22
2023-09-17T19:27:00.922Z,3.47
2023-09-17T19:29:47.746Z,3.25
2023-09-17T19:32:35.168Z,3.58
2023-09-17T19:35:22.717Z,3.50
2023-09-17T19:38:10.245Z,3.42
2023-09-17T19:40:57.459Z,3.60
2023-09-17T19:43:44.479Z,3.30
2023-09-17T19:46:32.744Z,3.33
2023-09-17T19:49:19.777Z,3.75
2023-09-17T19:52:06.852Z,3.50
2023-09-17T19:54:53.656Z,3.25
2023-09-17T19:57:43.143Z,3.58
2023-09-17T20:00:33.045Z,3.63
2023-09-17T20:03:24.615Z,3.28
2023-09-17T20:06:11.666Z,3.50
2023-09-17T20:08:58.713Z,4.10
2023-09-17T20:11:48.187Z,3.30
2023-09-17T20:14:35.105Z,3.45
2023-09-17T20:17:21.937Z,3.20
2023-09-17T20:20:10.249Z,3.53
2023-09-17T20:22:57.133Z,3.22
2023-09-17T20:25:45.671Z,3.70
2023-09-17T20:28:32.429Z,3.20
2023-09-17T20:31:19.374Z,3.15
2023-09-17T20:34:06.473Z,3.40
2023-09-17T20:36:53.366Z,3.42
2023-09-17T20:39:42.134Z,3.17
2023-09-17T20:42:29.129Z,2.97
2023-09-17T20:45:18.065Z,3.20
2023-09-17T20:48:05.657Z,3.47
2023-09-17T20:50:52.488Z,3.50
2023-09-17T20:53:39.464Z,3.38
2023-09-17T20:56:30.766Z,3.08
2023-09-17T20:59:18.977Z,3.42
2023-09-17T21:02:05.919Z,3.10
2023-09-17T21:04:57.863Z,3.55
2023-09-17T21:07:47.805Z,3.47
2023-09-17T21:10:34.658Z,3.45
2023-09-17T21:13:21.617Z,3.40
2023-09-17T21:16:09.651Z,3.50
2023-09-17T21:18:56.461Z,3.50
2023-09-17T21:21:43.392Z,3.70
2023-09-17T21:24:31.349Z,3.85
2023-09-17T21:27:18.288Z,3.58
2023-09-17T21:30:05.718Z,3.70
2023-09-17T21:32:52.688Z,3.15
2023-09-17T21:35:39.522Z,3.63
2023-09-17T21:38:26.573Z,3.20
2023-09-17T21:41:14.734Z,3.20
2023-09-17T21:44:02.500Z,3.53
2023-09-17T21:46:49.384Z,3.88
2023-09-17T21:49:43.308Z,3.83
2023-09-17T21:52:31.568Z,3.33
2023-09-17T21:55:18.513Z,3.80
2023-09-17T21:58:06.321Z,3.35
2023-09-17T22:00:53.344Z,3.67
2023-09-17T22:03:41.422Z,4.10
2023-09-17T22:06:28.773Z,3.65
2023-09-17T22:09:15.537Z,3.30
2023-09-17T22:12:03.275Z,4.05
2023-09-17T22:14:50.231Z,3.70
2023-09-17T22:17:37.415Z,3.78
2023-09-17T22:20:25.829Z,3.57
2023-09-17T22:23:12.841Z,3.30
2023-09-17T22:26:00.342Z,2.95
2023-09-17T22:28:47.260Z,3.60
2023-09-17T22:31:34.043Z,3.50
2023-09-17T22:34:20.864Z,3.20
2023-09-17T22:37:07.707Z,3.90
2023-09-17T22:39:54.609Z,3.40
2023-09-17T22:42:41.481Z,3.53
2023-09-17T22:45:31.759Z,3.60
2023-09-17T22:48:19.477Z,4.20
2023-09-17T22:51:07.532Z,3.63
2023-09-17T22:53:54.461Z,4.07
2023-09-17T22:56:41.517Z,3.43
2023-09-17T22:59:28.395Z,3.40
2023-09-17T23:02:15.295Z,3.57
2023-09-17T23:05:02.246Z,3.50
2023-09-17T23:07:50.281Z,3.63
2023-09-17T23:10:37.308Z,3.90
2023-09-17T23:13:25.427Z,3.47
2023-09-17T23:16:12.197Z,4.30
2023-09-17T23:19:01.415Z,3.57
2023-09-17T23:21:49.163Z,3.73
2023-09-17T23:24:36.136Z,3.70
2023-09-17T23:27:25.016Z,3.80
2023-09-17T23:30:13.783Z,3.77
2023-09-17T23:33:00.900Z,3.77
2023-09-17T23:35:51.095Z,3.93
2023-09-17T23:38:38.198Z,3.87
2023-09-17T23:41:24.997Z,3.73
2023-09-17T23:44:12.070Z,4.10
2023-09-17T23:46:58.885Z,3.53
2023-09-17T23:49:45.849Z,3.53
2023-09-17T23:52:32.578Z,3.77
2023-09-17T23:55:19.442Z,3.80
2023-09-17T23:58:06.418Z,3.80
